Meteo Giornale » Osservazioni meteo Croazia » Pula Aerodrome

ore: 16:30 - Osservazioni Meteo Pula Aerodrome
Lat. 45° 54' N Lon. 13° 55' E Alt. 63 metri s.l.m.

nuvoloso Europe/Zagreb

11 °C

Nuvoloso

Temp. 24 Ore

11 °C

18 °C

Ovest/Sud-Ovest

11.1 Km/h

Dew point 8 °C

Umidità 81 %

Visibilità  10 Km

Il sole sorge alle ore 07:00

Il sole tramonta alle ore 16:36

Data e Ora Cielo e Fenomeni T °C DP °C Um. % Pres. hPa Vis. km Vento km/h
Oggi h: 16:30 nuvoloso Nuvoloso 11 8 81 1001 10 O/SO 11.1
Oggi h: 16:00 poco_nuvoloso Poco Nuvoloso 12 8 76 1000 10 O 14.8
Oggi h: 15:30 nuvoloso Nuvoloso 12 8 76 1000 10 O 24
Oggi h: 15:00 molto_nuvoloso Molto Nuvoloso 12 9 81 999 10 O 22.2
Oggi h: 14:30 molto_nuvoloso Molto Nuvoloso 12 9 81 999 10 O 24
Oggi h: 14:00 nuvoloso Nuvoloso 12 9 81 998 10 O 24
Oggi h: 13:30 nuvoloso Nuvoloso 13 9 76 998 10 O 27.8
Oggi h: 13:00 molto_nuvoloso Molto Nuvoloso 13 10 81 997 10 O 27.8
Oggi h: 12:30 molto_nuvoloso Molto Nuvoloso 13 11 87 997 10 O 25.9
Oggi h: 12:00 molto_nuvoloso Molto Nuvoloso 13 11 87 996 10 O 27.8
Oggi h: 11:30 molto_nuvoloso Molto Nuvoloso 13 12 93 996 10 O 27.8
Oggi h: 11:00 molto_nuvoloso Molto Nuvoloso 13 12 93 996 10 O/NO 14.8
Oggi h: 10:30 coperto_pioggia Pioggia 13 12 93 995 8 O 18.5
Oggi h: 10:00 nuvoloso Nuvoloso 14 13 93 994 10 O 9.3
Oggi h: 09:30 coperto_pioggia Pioggia Debole 14 13 93 994 10 N 3.7
Oggi h: 09:00 coperto_pioggia Pioggia Debole 13 12 93 994 10 N 1.8
Oggi h: 08:30 coperto_pioggia Pioggia Debole 13 12 93 993 10 E/NE 11.1
Oggi h: 08:00 poco_nuvoloso Poco Nuvoloso 12 12 100 993 10 NE 9.3
Oggi h: 07:30 coperto_pioggia Pioggia Debole 12 11 93 993 10 NE 11.1
Oggi h: 07:00 coperto_pioggia Pioggia Debole 12 12 100 993 10 NE 11.1
Oggi h: 06:30 nuvoloso_temporali Temporale con Pioggia Debole 12 12 100 993 10 E/NE 13
Oggi h: 06:00 nuvoloso_temporali Temporale con Pioggia Debole 12 12 100 993 10 O 11.1
Oggi h: 05:30 nuvoloso_temporali Temporale con Pioggia 12 12 100 994 3 S 14.8
Oggi h: 05:00 nuvoloso_temporali Temporale con Pioggia Debole 14 13 93 994 10 N 16.7
Oggi h: 04:30 nuvoloso_temporali Temporale con Pioggia 14 13 93 994 3 SE 22.2
Oggi h: 04:00 nuvoloso_temporali Temporale con Pioggia Debole 15 13 87 993 10 SE 24
Oggi h: 03:30 nuvoloso_temporali Temporale con Pioggia Debole 16 13 82 994 10 E/SE 20.3
Oggi h: 03:00 molto_nuvoloso Molto Nuvoloso 16 13 82 994 10 SE 14.8
Oggi h: 02:30 molto_nuvoloso Molto Nuvoloso 16 13 82 994 10 S/SE 14.8
Oggi h: 02:00 molto_nuvoloso Molto Nuvoloso 16 13 82 995 10 S/SE 16.7
Oggi h: 01:30 molto_nuvoloso Molto Nuvoloso 15 13 87 995 10 N 14.8
Oggi h: 01:00 nuvoloso_temporali Temporale nelle Vicinanze 12 11 93 996 10 N 11.1
Oggi h: 00:30 nuvoloso_temporali Temporale nelle Vicinanze 12 11 93 996 10 N 5.5
Oggi h: 00:00 molto_nuvoloso Molto Nuvoloso 12 11 93 997 10 N/NE 9.3
Ieri h: 23:30 nuvoloso_temporali Temporale con Pioggia 12 11 93 997 8 N/NO 11.1
Ieri h: 23:00 coperto_pioggia Pioggia Debole 12 11 93 997 10 N/NO 7.4
Ieri h: 22:30 coperto_pioggia Pioggia Debole Temporale nelle Vicinanze 12 11 93 997 10 O 9.3
Ieri h: 22:00 coperto_pioggia Pioggia 12 11 93 998 5 S/SO 9.3
Ieri h: 21:30 nuvoloso_temporali Temporale con Pioggia Debole 14 11 82 997 10 S/SO 16.7
Ieri h: 21:00 coperto_temporali Temporale 13 11 87 997 10 S/SO 24
Ieri h: 20:30 coperto_pioggia Pioggia Debole 15 12 82 996 10 S/SO 25.9
Ieri h: 20:00 molto_nuvoloso Molto Nuvoloso 16 13 82 995 10 SE 22.2
Ieri h: 19:30 molto_nuvoloso Molto Nuvoloso 17 13 77 995 10 SE 25.9
Ieri h: 19:00 coperto_pioggia Pioggia Debole 17 15 88 994 10 E/SE 29.6
Ieri h: 18:30 coperto Coperto 17 14 82 994 10 SE 31.5
Ieri h: 18:00 coperto Coperto 18 14 77 994 10 SE 33.3
Ieri h: 17:30 coperto_pioggia Pioggia Debole 17 15 88 994 10 SE 35.2
Ieri h: 17:00 coperto_pioggia Pioggia 11 11 100 993 2 NE 35.2